Аэропорт: Стригино. Нижний Новгород

ICAO: UWGG

METAR:
2018/07/22 20:00
UWGG 222000Z 09004MPS 9999 BKN033 20/14 Q1014 R36R/090070 NOSIG
METAR:
2018/07/22 18:37
TAF UWGG 221653Z 2218/2318 09003MPS 9999 SCT030 TX24/2312Z TN17/2302Z 
      TEMPO 2218/2315 10006G14MPS